Time;durP1;ratioP1;P1;durP2;ratioP2;P2;SDS_P1;SDS_P2;PMS_P1;PMS_P2;Temp;Humidity;BMP_temperature;BMP_pressure;BME280_temperature;BME280_humidity;BME280_pressure;Samples;Min_cycle;Max_cycle;Signal;HPM_P1;HPM_P2
2023/09/26 00:01:32;;;;;;;0.30;0.30;;;15.00;99.90;;;;;;5057598;28;20120;-71
2023/09/26 00:03:57;;;;;;;0.68;0.68;;;15.00;99.90;;;;;;5046184;28;20219;-72
2023/09/26 00:06:24;;;;;;;1.35;0.30;;;15.00;99.90;;;;;;5044950;28;20041;-71
2023/09/26 00:08:54;;;;;;;0.10;0.10;;;15.00;99.90;;;;;;5047398;28;20036;-72
2023/09/26 00:11:19;;;;;;;0.85;0.38;;;15.00;99.90;;;;;;5040294;28;20083;-72
2023/09/26 00:13:46;;;;;;;0.20;0.20;;;15.00;99.90;;;;;;5047654;28;20068;-72
2023/09/26 00:16:12;;;;;;;1.27;1.05;;;15.00;99.90;;;;;;5040400;28;20090;-71
2023/09/26 00:18:40;;;;;;;0.50;0.50;;;15.00;99.90;;;;;;5042803;28;20040;-72
2023/09/26 00:21:07;;;;;;;1.30;0.90;;;14.90;99.90;;;;;;5041460;28;20040;-71
2023/09/26 00:23:33;;;;;;;0.13;0.13;;;15.00;99.90;;;;;;5042836;28;20025;-71
2023/09/26 00:25:58;;;;;;;0.40;0.38;;;14.90;99.90;;;;;;5047865;28;20621;-71
2023/09/26 00:28:24;;;;;;;0.50;0.50;;;14.90;99.90;;;;;;5042399;28;20616;-71
2023/09/26 00:30:49;;;;;;;0.20;0.20;;;14.80;99.90;;;;;;5044477;28;20472;-72
2023/09/26 00:33:16;;;;;;;0.10;0.10;;;14.80;99.90;;;;;;5044909;28;20115;-71
2023/09/26 00:35:41;;;;;;;0.30;0.30;;;14.80;99.90;;;;;;5043887;28;20056;-72
2023/09/26 00:38:08;;;;;;;1.13;0.43;;;14.70;99.90;;;;;;5044400;28;20028;-72
2023/09/26 00:40:33;;;;;;;0.30;0.30;;;14.70;99.90;;;;;;5041985;28;20431;-72
2023/09/26 00:43:02;;;;;;;0.65;0.30;;;14.70;99.90;;;;;;5061352;28;20040;-72
2023/09/26 00:45:27;;;;;;;0.30;0.30;;;14.70;99.90;;;;;;5045629;28;20052;-72
2023/09/26 00:47:53;;;;;;;0.30;0.30;;;14.70;99.90;;;;;;5043416;28;20053;-72
2023/09/26 00:50:22;;;;;;;0.52;0.50;;;14.70;99.90;;;;;;5041670;28;20195;-72
2023/09/26 00:52:51;;;;;;;1.50;1.08;;;14.60;99.90;;;;;;5043175;28;20124;-72
2023/09/26 00:55:21;;;;;;;0.20;0.20;;;14.60;99.90;;;;;;5041987;28;20479;-72
2023/09/26 00:57:47;;;;;;;0.22;0.20;;;14.70;99.90;;;;;;5046028;28;20037;-72
2023/09/26 01:00:15;;;;;;;0.30;0.30;;;14.60;99.90;;;;;;5040231;28;20155;-71
2023/09/26 01:02:41;;;;;;;0.90;0.52;;;14.60;99.90;;;;;;5038925;28;20107;-71
2023/09/26 01:05:08;;;;;;;1.02;0.47;;;14.60;99.90;;;;;;5042657;28;20049;-71
2023/09/26 01:07:35;;;;;;;0.80;0.45;;;14.60;99.90;;;;;;5040138;28;20076;-72
2023/09/26 01:10:01;;;;;;;1.10;0.45;;;14.60;99.90;;;;;;5072055;28;20564;-71
2023/09/26 01:12:30;;;;;;;0.73;0.73;;;14.50;99.90;;;;;;5043220;28;20051;-71
2023/09/26 01:14:56;;;;;;;0.47;0.47;;;14.50;99.90;;;;;;5038767;28;20110;-71
2023/09/26 01:17:21;;;;;;;0.25;0.25;;;14.50;99.90;;;;;;5045037;28;20069;-71
2023/09/26 01:19:47;;;;;;;0.20;0.20;;;14.50;99.90;;;;;;5046962;28;20641;-71
2023/09/26 01:22:16;;;;;;;0.20;0.20;;;14.40;99.90;;;;;;5046514;28;20479;-71
2023/09/26 01:24:43;;;;;;;0.38;0.30;;;14.40;99.90;;;;;;5041442;28;20040;-71
2023/09/26 01:27:09;;;;;;;2.35;0.85;;;14.50;99.90;;;;;;5049190;28;20170;-71
2023/09/26 01:29:35;;;;;;;0.13;0.13;;;14.40;99.90;;;;;;5043581;28;20463;-71
2023/09/26 01:32:00;;;;;;;0.20;0.20;;;14.40;99.90;;;;;;5046683;28;20138;-72
2023/09/26 01:34:26;;;;;;;0.20;0.20;;;14.40;99.90;;;;;;5044849;28;20036;-72
2023/09/26 01:36:52;;;;;;;0.50;0.50;;;14.40;99.90;;;;;;5043147;28;20037;-71
2023/09/26 01:39:17;;;;;;;0.80;0.80;;;14.40;99.90;;;;;;5046594;28;20033;-71
2023/09/26 01:41:43;;;;;;;0.47;0.45;;;14.40;99.90;;;;;;5044872;28;20434;-71
2023/09/26 01:44:08;;;;;;;0.30;0.30;;;14.40;99.90;;;;;;5042788;28;20123;-72
2023/09/26 01:46:34;;;;;;;1.73;0.30;;;14.40;99.90;;;;;;5048601;28;20078;-71
2023/09/26 01:49:00;;;;;;;1.55;1.30;;;14.40;99.90;;;;;;5039336;28;20110;-72
2023/09/26 01:51:25;;;;;;;1.42;1.00;;;14.40;99.90;;;;;;5044505;28;20043;-72
2023/09/26 01:53:51;;;;;;;1.20;0.20;;;14.30;99.90;;;;;;5044767;28;20106;-72
2023/09/26 01:56:17;;;;;;;0.32;0.32;;;14.40;99.90;;;;;;5069853;28;20098;-71
2023/09/26 01:58:42;;;;;;;0.65;0.65;;;14.40;99.90;;;;;;5046119;28;20032;-72
2023/09/26 02:01:08;;;;;;;0.60;0.40;;;14.30;99.90;;;;;;5043677;28;20028;-72
2023/09/26 02:03:34;;;;;;;0.20;0.20;;;14.30;99.90;;;;;;5046830;28;20544;-71
2023/09/26 02:06:00;;;;;;;1.75;1.08;;;14.30;99.90;;;;;;5041967;28;21259;-72
2023/09/26 02:08:26;;;;;;;0.60;0.60;;;14.30;99.90;;;;;;5047019;28;20036;-72
2023/09/26 02:10:52;;;;;;;0.63;0.63;;;14.30;99.90;;;;;;5039301;28;20032;-72
2023/09/26 02:13:17;;;;;;;0.70;0.40;;;14.30;99.90;;;;;;5037701;28;21792;-71
2023/09/26 02:15:43;;;;;;;1.75;1.13;;;14.30;99.90;;;;;;5040482;28;20871;-71
2023/09/26 02:18:09;;;;;;;1.55;1.05;;;14.30;99.90;;;;;;5042000;28;20060;-71
2023/09/26 02:20:34;;;;;;;0.25;0.25;;;14.30;99.90;;;;;;5038753;28;20029;-71
2023/09/26 02:23:00;;;;;;;0.35;0.35;;;14.30;99.90;;;;;;5041974;28;20094;-71
2023/09/26 02:25:27;;;;;;;0.60;0.60;;;14.30;99.90;;;;;;5041870;28;20406;-72
2023/09/26 02:27:53;;;;;;;3.08;0.80;;;14.30;99.90;;;;;;5041864;28;20123;-72
2023/09/26 02:30:28;;;;;;;0.13;0.10;;;14.30;99.90;;;;;;5038498;28;20047;-71
2023/09/26 02:32:54;;;;;;;0.90;0.55;;;14.30;99.90;;;;;;5043784;28;20040;-71
2023/09/26 02:35:20;;;;;;;0.60;0.40;;;14.30;99.90;;;;;;5024612;28;20036;-71
2023/09/26 02:37:45;;;;;;;2.33;0.60;;;14.30;99.90;;;;;;5036394;28;20503;-71
2023/09/26 02:40:12;;;;;;;2.55;0.80;;;14.30;99.90;;;;;;5037313;28;20094;-71
2023/09/26 02:42:39;;;;;;;2.45;0.38;;;14.20;99.90;;;;;;5040219;28;20412;-71
2023/09/26 02:45:05;;;;;;;0.70;0.70;;;14.20;99.90;;;;;;5041843;28;20036;-71
2023/09/26 02:47:31;;;;;;;0.30;0.30;;;14.20;99.90;;;;;;5046705;28;20040;-71
2023/09/26 02:49:57;;;;;;;1.08;0.40;;;14.10;99.90;;;;;;5041587;28;20040;-71
2023/09/26 02:52:23;;;;;;;1.13;0.68;;;14.10;99.90;;;;;;5044553;28;20159;-71
2023/09/26 02:54:49;;;;;;;1.27;1.05;;;14.10;99.90;;;;;;5069792;28;20110;-71
2023/09/26 02:57:15;;;;;;;0.68;0.40;;;14.00;99.90;;;;;;5042496;28;20040;-71
2023/09/26 02:59:41;;;;;;;0.43;0.43;;;14.00;99.90;;;;;;5039574;28;20040;-71
2023/09/26 03:02:06;;;;;;;3.15;0.77;;;13.90;99.90;;;;;;5019432;28;20519;-71
2023/09/26 03:04:33;;;;;;;1.08;0.50;;;13.90;99.90;;;;;;5038014;28;20040;-71
2023/09/26 03:06:58;;;;;;;2.28;0.95;;;13.90;99.90;;;;;;5048836;28;20075;-71
2023/09/26 03:09:24;;;;;;;0.60;0.50;;;13.80;99.90;;;;;;5048741;28;20068;-71
2023/09/26 03:11:50;;;;;;;5.57;2.13;;;13.80;99.90;;;;;;5044405;28;20044;-71
2023/09/26 03:14:17;;;;;;;1.25;0.95;;;13.70;99.90;;;;;;5050606;28;20056;-71
2023/09/26 03:16:42;;;;;;;0.63;0.63;;;13.70;99.90;;;;;;5050865;28;20048;-71
2023/09/26 03:19:09;;;;;;;0.65;0.65;;;13.70;99.90;;;;;;5045647;28;20052;-71
2023/09/26 03:21:34;;;;;;;1.08;0.80;;;13.60;99.90;;;;;;5045866;28;20052;-71
2023/09/26 03:24:00;;;;;;;1.25;0.75;;;13.60;99.90;;;;;;5050269;28;20425;-71
2023/09/26 03:26:25;;;;;;;0.80;0.63;;;13.60;99.90;;;;;;5051173;28;20501;-71
2023/09/26 03:28:51;;;;;;;1.05;0.95;;;13.50;99.90;;;;;;5040044;28;20047;-71
2023/09/26 03:31:16;;;;;;;3.22;1.30;;;13.50;99.90;;;;;;5041392;28;20040;-71
2023/09/26 03:33:42;;;;;;;7.22;2.35;;;13.40;99.90;;;;;;5040651;28;20063;-71
2023/09/26 03:36:08;;;;;;;2.00;1.38;;;13.30;99.90;;;;;;5043878;28;20043;-71
2023/09/26 03:38:33;;;;;;;1.48;0.85;;;13.30;99.90;;;;;;5043937;28;20132;-71
2023/09/26 03:41:00;;;;;;;0.52;0.52;;;13.20;99.90;;;;;;5045457;28;20032;-71
2023/09/26 03:43:26;;;;;;;0.52;0.47;;;13.20;99.90;;;;;;5048343;28;20446;-71
2023/09/26 03:46:02;;;;;;;0.95;0.95;;;13.10;99.90;;;;;;5047103;28;20495;-71
2023/09/26 03:48:29;;;;;;;1.98;0.50;;;13.10;99.90;;;;;;5033663;28;20391;-71
2023/09/26 03:50:55;;;;;;;1.55;0.68;;;13.10;99.90;;;;;;5071080;28;20059;-71
2023/09/26 03:53:20;;;;;;;1.17;0.88;;;13.00;99.90;;;;;;5046960;28;20286;-71
2023/09/26 03:56:05;;;;;;;0.47;0.43;;;13.00;99.90;;;;;;5047315;28;20032;-71
2023/09/26 03:58:31;;;;;;;1.70;0.98;;;13.00;99.90;;;;;;5043305;28;20552;-71
2023/09/26 04:01:07;;;;;;;0.38;0.35;;;13.00;99.90;;;;;;5066947;28;20548;-71
2023/09/26 04:03:33;;;;;;;1.65;0.80;;;12.90;99.90;;;;;;5045394;28;20045;-71
2023/09/26 04:05:58;;;;;;;0.95;0.85;;;12.90;99.90;;;;;;5027840;28;20032;-71
2023/09/26 04:08:24;;;;;;;0.43;0.43;;;12.90;99.90;;;;;;5052162;28;20093;-71
2023/09/26 04:10:49;;;;;;;1.85;1.23;;;12.90;99.90;;;;;;5042612;28;20044;-71
2023/09/26 04:13:15;;;;;;;1.05;0.57;;;12.80;99.90;;;;;;5040901;28;20117;-71
2023/09/26 04:15:40;;;;;;;0.73;0.73;;;12.80;99.90;;;;;;5038302;28;20040;-71
2023/09/26 04:18:06;;;;;;;4.00;1.25;;;12.80;99.90;;;;;;5043936;28;20040;-71
2023/09/26 04:20:35;;;;;;;1.90;1.38;;;12.70;99.90;;;;;;5048592;28;20386;-71
2023/09/26 04:23:01;;;;;;;2.17;1.73;;;12.70;99.90;;;;;;5043578;28;20036;-71
2023/09/26 04:25:30;;;;;;;2.78;0.93;;;12.70;99.90;;;;;;5045899;28;20071;-71
2023/09/26 04:27:55;;;;;;;2.50;1.08;;;12.70;99.90;;;;;;5046054;28;20447;-71
2023/09/26 04:30:21;;;;;;;1.50;1.10;;;12.60;99.90;;;;;;5067660;28;20136;-71
2023/09/26 04:32:47;;;;;;;2.00;1.60;;;12.60;99.90;;;;;;5042984;28;20091;-71
2023/09/26 04:35:12;;;;;;;6.22;0.90;;;12.60;99.90;;;;;;5043890;28;20051;-72
2023/09/26 04:37:38;;;;;;;1.95;0.98;;;12.50;99.90;;;;;;5046467;28;20048;-71
2023/09/26 04:40:10;;;;;;;0.52;0.43;;;12.50;99.90;;;;;;5046824;28;20231;-71
2023/09/26 04:42:39;;;;;;;1.38;1.27;;;12.50;99.90;;;;;;5046657;28;20039;-71
2023/09/26 04:45:06;;;;;;;0.60;0.60;;;12.50;99.90;;;;;;5043425;28;20044;-71
2023/09/26 04:47:31;;;;;;;1.02;0.73;;;12.50;99.90;;;;;;5045707;28;20048;-71
2023/09/26 04:49:57;;;;;;;2.65;0.60;;;12.40;99.90;;;;;;5046125;28;20454;-71
2023/09/26 04:52:23;;;;;;;0.40;0.30;;;12.40;99.90;;;;;;5043791;28;20114;-71
2023/09/26 04:54:51;;;;;;;1.83;1.10;;;12.40;99.90;;;;;;5047803;28;20099;-71
2023/09/26 04:57:16;;;;;;;7.38;1.15;;;12.40;99.90;;;;;;5052497;28;20437;-71
2023/09/26 04:59:42;;;;;;;3.33;1.75;;;12.40;99.90;;;;;;5045556;28;20040;-71
2023/09/26 05:02:08;;;;;;;1.05;0.73;;;12.40;99.90;;;;;;5037284;28;20086;-71
2023/09/26 05:04:33;;;;;;;0.65;0.60;;;12.40;99.90;;;;;;5040934;28;20041;-71
2023/09/26 05:06:59;;;;;;;3.03;2.13;;;12.40;99.90;;;;;;5043296;28;20048;-71
2023/09/26 05:09:25;;;;;;;0.55;0.52;;;12.30;99.90;;;;;;5041701;28;20041;-71
2023/09/26 05:11:50;;;;;;;0.30;0.30;;;12.30;99.90;;;;;;5050999;28;20055;-71
2023/09/26 05:14:16;;;;;;;0.75;0.57;;;12.30;99.90;;;;;;5044532;28;20051;-71
2023/09/26 05:16:41;;;;;;;0.93;0.82;;;12.30;99.90;;;;;;5034161;28;20036;-71
2023/09/26 05:19:07;;;;;;;3.97;1.42;;;12.30;99.90;;;;;;5049037;28;20054;-71
2023/09/26 05:21:33;;;;;;;1.02;0.93;;;12.30;99.90;;;;;;5049631;28;20032;-71
2023/09/26 05:23:58;;;;;;;1.92;1.02;;;12.30;99.90;;;;;;5048003;28;20040;-71
2023/09/26 05:26:24;;;;;;;1.88;1.35;;;12.30;99.90;;;;;;5042344;28;20407;-71
2023/09/26 05:28:49;;;;;;;0.50;0.50;;;12.30;99.90;;;;;;5047400;28;20051;-71
2023/09/26 05:31:15;;;;;;;1.58;1.17;;;12.30;99.90;;;;;;5070824;28;20495;-71
2023/09/26 05:33:40;;;;;;;1.10;0.63;;;12.30;99.90;;;;;;5038649;28;20048;-71
2023/09/26 05:36:06;;;;;;;1.75;0.50;;;12.30;99.90;;;;;;5052881;28;20173;-71
2023/09/26 05:38:32;;;;;;;1.65;1.00;;;12.20;99.90;;;;;;5050427;28;20115;-71
2023/09/26 05:40:57;;;;;;;1.98;0.47;;;12.30;99.90;;;;;;5050113;28;20376;-71
2023/09/26 05:43:23;;;;;;;0.90;0.82;;;12.30;99.90;;;;;;5048637;28;20478;-71
2023/09/26 05:45:51;;;;;;;1.63;1.52;;;12.30;99.90;;;;;;5048430;28;20040;-71
2023/09/26 05:48:16;;;;;;;0.98;0.93;;;12.30;99.90;;;;;;5048457;28;20037;-71
2023/09/26 05:50:42;;;;;;;1.02;0.70;;;12.20;99.90;;;;;;5060387;28;20043;-71
2023/09/26 05:53:08;;;;;;;2.45;0.70;;;12.20;99.90;;;;;;5030381;28;20060;-71
2023/09/26 05:55:33;;;;;;;1.00;0.60;;;12.20;99.90;;;;;;5042739;28;20033;-71
2023/09/26 05:57:59;;;;;;;0.52;0.35;;;12.20;99.90;;;;;;5041583;28;20071;-71
2023/09/26 06:00:24;;;;;;;1.95;0.63;;;12.20;99.90;;;;;;5044696;28;20029;-71
2023/09/26 06:02:51;;;;;;;0.63;0.50;;;12.20;99.90;;;;;;5062821;28;20044;-71
2023/09/26 06:05:17;;;;;;;0.75;0.75;;;12.30;99.90;;;;;;5047687;28;20067;-71
2023/09/26 06:07:42;;;;;;;0.75;0.50;;;12.30;99.90;;;;;;5045931;28;20083;-71
2023/09/26 06:10:11;;;;;;;0.45;0.45;;;12.30;99.90;;;;;;5046211;28;20040;-71
2023/09/26 06:12:39;;;;;;;0.98;0.93;;;12.30;99.90;;;;;;5040727;28;20048;-71
2023/09/26 06:15:06;;;;;;;0.40;0.40;;;12.30;99.90;;;;;;5036343;28;20067;-71
2023/09/26 06:17:32;;;;;;;1.30;1.10;;;12.40;99.90;;;;;;5040095;28;20328;-71
2023/09/26 06:19:58;;;;;;;1.38;0.50;;;12.40;99.90;;;;;;5047325;28;20134;-71
2023/09/26 06:22:23;;;;;;;0.73;0.60;;;12.40;99.90;;;;;;5039560;28;20061;-71
2023/09/26 06:24:49;;;;;;;1.27;0.60;;;12.50;99.90;;;;;;5047724;28;20483;-71
2023/09/26 06:27:15;;;;;;;1.05;0.82;;;12.50;99.90;;;;;;5040835;28;20056;-71
2023/09/26 06:29:41;;;;;;;0.30;0.30;;;12.50;99.90;;;;;;5031243;28;20040;-71
2023/09/26 06:32:07;;;;;;;1.15;1.10;;;12.50;99.90;;;;;;5047702;28;20227;-71
2023/09/26 06:34:35;;;;;;;0.40;0.40;;;12.60;99.90;;;;;;5047341;28;20029;-71
2023/09/26 06:37:02;;;;;;;0.38;0.38;;;12.60;99.90;;;;;;5035895;28;20423;-71
2023/09/26 06:39:27;;;;;;;1.38;0.68;;;12.60;99.90;;;;;;5047722;28;20044;-71
2023/09/26 06:41:53;;;;;;;0.70;0.70;;;12.60;99.90;;;;;;5052228;28;20036;-71
2023/09/26 06:44:18;;;;;;;1.00;0.30;;;12.70;99.90;;;;;;5045671;28;20072;-71
2023/09/26 06:46:44;;;;;;;0.45;0.45;;;12.70;99.90;;;;;;5043271;28;20048;-71
2023/09/26 06:49:10;;;;;;;2.03;1.23;;;12.70;99.90;;;;;;5045448;28;20040;-71
2023/09/26 06:51:36;;;;;;;1.33;0.68;;;12.80;99.90;;;;;;5038591;28;20048;-71
2023/09/26 06:54:02;;;;;;;1.00;0.40;;;12.80;99.90;;;;;;5046470;28;20040;-71
2023/09/26 06:56:28;;;;;;;0.65;0.65;;;12.90;99.90;;;;;;5036579;28;20383;-71
2023/09/26 06:58:54;;;;;;;0.68;0.68;;;12.90;99.90;;;;;;5081104;28;20101;-71
2023/09/26 07:01:19;;;;;;;5.18;1.58;;;13.00;99.90;;;;;;5041163;28;20037;-71
2023/09/26 07:03:46;;;;;;;0.30;0.30;;;13.10;99.90;;;;;;5047037;28;20494;-72
2023/09/26 07:06:14;;;;;;;0.73;0.47;;;13.10;99.90;;;;;;5041720;28;20059;-71
2023/09/26 07:08:41;;;;;;;1.60;0.20;;;13.20;99.90;;;;;;5049693;28;20036;-71
2023/09/26 07:11:07;;;;;;;1.48;1.23;;;13.30;99.90;;;;;;5042532;28;20044;-72
2023/09/26 07:13:36;;;;;;;0.45;0.45;;;13.30;99.90;;;;;;5073213;28;20050;-71
2023/09/26 07:16:04;;;;;;;1.25;0.82;;;13.40;99.90;;;;;;5040364;28;20051;-71
2023/09/26 07:18:33;;;;;;;2.08;0.28;;;13.50;99.90;;;;;;5040633;28;20045;-71
2023/09/26 07:21:03;;;;;;;0.20;0.20;;;13.60;99.90;;;;;;5072140;28;20380;-71
2023/09/26 07:23:29;;;;;;;2.38;0.45;;;13.60;99.90;;;;;;5044819;28;20040;-71
2023/09/26 07:26:12;;;;;;;0.50;0.50;;;13.70;99.90;;;;;;5053952;28;20043;-71
2023/09/26 07:28:38;;;;;;;;;;;13.80;99.90;;;;;;5073222;28;20045;-71
2023/09/26 07:31:04;;;;;;;0.30;0.30;;;13.90;99.90;;;;;;5071413;28;19916;-72
2023/09/26 07:33:30;;;;;;;1.25;0.43;;;14.00;99.90;;;;;;5038711;28;20492;-72
2023/09/26 07:35:56;;;;;;;1.27;1.17;;;14.10;99.90;;;;;;5035956;28;20082;-72
2023/09/26 07:38:21;;;;;;;0.93;0.30;;;14.20;99.90;;;;;;5038652;28;21488;-72
2023/09/26 07:40:47;;;;;;;0.30;0.30;;;14.30;99.90;;;;;;5041157;28;20399;-72
2023/09/26 07:43:13;;;;;;;1.85;0.50;;;14.50;99.90;;;;;;5037332;28;20040;-71
2023/09/26 07:45:39;;;;;;;0.40;0.30;;;14.60;99.90;;;;;;5035474;28;20045;-71
2023/09/26 07:48:05;;;;;;;1.30;0.55;;;14.80;99.90;;;;;;5042849;28;20040;-71
2023/09/26 07:50:31;;;;;;;0.52;0.32;;;14.90;99.90;;;;;;5035769;28;20814;-72
2023/09/26 07:52:56;;;;;;;0.28;0.28;;;15.00;99.90;;;;;;5034348;28;20627;-72
2023/09/26 07:55:22;;;;;;;5.07;0.75;;;15.10;99.90;;;;;;5035697;28;20300;-71
2023/09/26 07:57:48;;;;;;;0.80;0.50;;;15.20;99.90;;;;;;5037846;28;20045;-72
2023/09/26 08:00:14;;;;;;;0.35;0.20;;;15.20;99.90;;;;;;5036035;28;20084;-72
2023/09/26 08:02:40;;;;;;;0.57;0.57;;;15.30;99.90;;;;;;5039223;28;20090;-72
2023/09/26 08:05:06;;;;;;;0.68;0.68;;;15.30;99.90;;;;;;5040936;28;20044;-72
2023/09/26 08:07:32;;;;;;;2.13;1.23;;;15.40;99.90;;;;;;5072241;28;20048;-72
2023/09/26 08:10:00;;;;;;;1.23;0.70;;;15.40;99.90;;;;;;5037116;28;20039;-72
2023/09/26 08:12:27;;;;;;;1.95;0.95;;;15.40;99.90;;;;;;5040737;28;20082;-71
2023/09/26 08:14:53;;;;;;;1.30;1.05;;;15.50;99.90;;;;;;5038792;28;20467;-72
2023/09/26 08:17:19;;;;;;;1.63;0.82;;;15.50;99.90;;;;;;5045507;28;20502;-72
2023/09/26 08:19:45;;;;;;;0.70;0.70;;;15.60;99.90;;;;;;5039807;28;20041;-71
2023/09/26 08:22:10;;;;;;;1.13;1.08;;;15.60;99.90;;;;;;5052563;28;20029;-71
2023/09/26 08:24:36;;;;;;;0.50;0.38;;;15.60;99.90;;;;;;5045797;28;20067;-71
2023/09/26 08:27:02;;;;;;;1.08;1.02;;;15.70;99.90;;;;;;5041259;28;20045;-71
2023/09/26 08:29:27;;;;;;;0.85;0.85;;;15.70;99.90;;;;;;5032831;28;20037;-72
2023/09/26 08:31:54;;;;;;;0.77;0.75;;;15.80;99.90;;;;;;5030080;28;20142;-72
2023/09/26 08:34:20;;;;;;;0.88;0.55;;;15.80;99.90;;;;;;5053115;28;20488;-71
2023/09/26 08:36:46;;;;;;;0.28;0.28;;;15.90;99.90;;;;;;5037936;28;20129;-71
2023/09/26 08:39:12;;;;;;;0.47;0.40;;;15.90;99.90;;;;;;5043138;28;20074;-72
2023/09/26 08:41:38;;;;;;;0.55;0.55;;;16.00;99.90;;;;;;5031637;28;20439;-71
2023/09/26 08:44:04;;;;;;;3.55;0.43;;;16.10;99.90;;;;;;5051250;28;20154;-71
2023/09/26 08:46:30;;;;;;;0.47;0.47;;;16.20;99.90;;;;;;5050156;28;20076;-71
2023/09/26 08:48:57;;;;;;;0.68;0.35;;;16.30;99.90;;;;;;5046448;28;20047;-71
2023/09/26 08:51:22;;;;;;;0.30;0.25;;;16.30;99.90;;;;;;5049841;28;21837;-71
2023/09/26 08:53:48;;;;;;;0.35;0.35;;;16.40;99.90;;;;;;5044665;28;20060;-71
2023/09/26 08:56:14;;;;;;;0.73;0.50;;;16.40;99.90;;;;;;5051846;28;20040;-71
2023/09/26 08:58:41;;;;;;;0.30;0.30;;;16.40;99.90;;;;;;5034784;28;20033;-71
2023/09/26 09:01:07;;;;;;;0.22;0.22;;;16.50;99.90;;;;;;5048824;28;20241;-71
2023/09/26 09:03:33;;;;;;;0.20;0.20;;;16.50;99.90;;;;;;5051520;28;20040;-71
2023/09/26 09:05:58;;;;;;;1.75;0.55;;;16.60;99.90;;;;;;5037617;28;20381;-71
2023/09/26 09:08:24;;;;;;;0.80;0.63;;;16.70;99.90;;;;;;5045908;28;20080;-71
2023/09/26 09:10:55;;;;;;;1.30;0.82;;;16.80;99.90;;;;;;5071466;28;20082;-70
2023/09/26 09:13:31;;;;;;;0.30;0.30;;;16.90;99.90;;;;;;5035560;28;20060;-71
2023/09/26 09:16:05;;;;;;;0.10;0.10;;;17.00;99.90;;;;;;5050610;28;20507;-71
2023/09/26 09:18:31;;;;;;;1.88;1.15;;;17.20;99.90;;;;;;5050628;28;20522;-71
2023/09/26 09:20:57;;;;;;;0.50;0.50;;;17.30;99.90;;;;;;5040545;28;20032;-71
2023/09/26 09:23:22;;;;;;;2.33;1.25;;;17.40;99.90;;;;;;5050888;28;20111;-71
2023/09/26 09:25:50;;;;;;;0.30;0.30;;;17.40;99.90;;;;;;5037234;28;20048;-71
2023/09/26 09:28:20;;;;;;;0.43;0.43;;;17.50;99.90;;;;;;5070946;28;20064;-71
2023/09/26 09:30:45;;;;;;;0.20;0.20;;;17.60;99.90;;;;;;5033287;28;20514;-70
2023/09/26 09:33:15;;;;;;;0.57;0.55;;;17.60;99.90;;;;;;5041271;28;20040;-71
2023/09/26 09:35:41;;;;;;;0.32;0.30;;;17.70;99.90;;;;;;5045353;28;20063;-71
2023/09/26 09:38:12;;;;;;;0.60;0.52;;;17.70;99.90;;;;;;5040863;28;20041;-71
2023/09/26 09:40:38;;;;;;;0.70;0.68;;;17.80;99.90;;;;;;5033268;28;20040;-71
2023/09/26 09:43:05;;;;;;;0.47;0.35;;;17.90;99.90;;;;;;5064456;28;20037;-71
2023/09/26 09:45:34;;;;;;;0.57;0.50;;;18.00;99.90;;;;;;5038545;28;20043;-70
2023/09/26 09:48:03;;;;;;;0.55;0.55;;;18.10;99.90;;;;;;5044604;28;20044;-70
2023/09/26 09:50:31;;;;;;;0.47;0.47;;;18.10;99.90;;;;;;5041019;28;20036;-71
2023/09/26 09:53:01;;;;;;;1.70;1.23;;;18.20;99.90;;;;;;5028851;28;20033;-70
2023/09/26 09:55:38;;;;;;;1.33;1.30;;;18.20;99.90;;;;;;5067230;28;20060;-70
2023/09/26 09:58:09;;;;;;;0.63;0.50;;;18.30;99.90;;;;;;5082539;28;20050;-71
2023/09/26 10:00:40;;;;;;;0.68;0.68;;;18.30;99.90;;;;;;5045237;28;20175;-71
2023/09/26 10:03:06;;;;;;;4.85;2.58;;;18.20;99.90;;;;;;5080231;28;20363;-71
2023/09/26 10:05:34;;;;;;;1.08;0.95;;;18.20;99.90;;;;;;5048317;28;20052;-71
2023/09/26 10:08:03;;;;;;;0.60;0.60;;;18.20;99.90;;;;;;5038058;28;20102;-71
2023/09/26 10:10:30;;;;;;;1.05;0.90;;;18.30;99.90;;;;;;5048959;28;20040;-71
2023/09/26 10:12:56;;;;;;;1.00;0.57;;;18.30;99.90;;;;;;5040981;28;20119;-71
2023/09/26 10:15:22;;;;;;;0.32;0.32;;;18.40;99.90;;;;;;5044907;28;20132;-71
2023/09/26 10:17:51;;;;;;;0.40;0.40;;;18.40;99.90;;;;;;5044955;28;20041;-71
2023/09/26 10:20:17;;;;;;;0.35;0.30;;;18.50;99.90;;;;;;5071461;28;20471;-70
2023/09/26 10:22:44;;;;;;;0.20;0.20;;;18.60;99.90;;;;;;5048478;28;20040;-70
2023/09/26 10:25:18;;;;;;;0.50;0.50;;;18.70;99.90;;;;;;5035963;28;20399;-70
2023/09/26 10:27:47;;;;;;;3.72;1.50;;;18.70;99.90;;;;;;5047997;28;20037;-71
2023/09/26 10:30:18;;;;;;;0.22;0.22;;;18.80;99.90;;;;;;5049849;28;20395;-71
2023/09/26 10:32:44;;;;;;;0.32;0.17;;;18.80;99.90;;;;;;5039569;28;20803;-71
2023/09/26 10:35:13;;;;;;;1.77;1.25;;;18.90;99.90;;;;;;5043695;28;20041;-71
2023/09/26 10:37:39;;;;;;;1.48;0.63;;;18.90;99.90;;;;;;5040644;28;20041;-71
2023/09/26 10:40:10;;;;;;;0.63;0.55;;;19.00;99.90;;;;;;5050820;28;20508;-71
2023/09/26 10:42:43;;;;;;;0.93;0.60;;;19.00;99.90;;;;;;5071852;28;20039;-71
2023/09/26 10:45:10;;;;;;;0.47;0.38;;;19.00;99.90;;;;;;5053821;28;20053;-70
2023/09/26 10:47:38;;;;;;;1.13;1.05;;;19.00;99.90;;;;;;5053698;28;20042;-71
2023/09/26 10:50:09;;;;;;;0.52;0.47;;;19.10;99.90;;;;;;5045817;28;20123;-71
2023/09/26 10:52:36;;;;;;;1.52;1.02;;;19.10;99.90;;;;;;5051221;28;20052;-70
2023/09/26 10:55:03;;;;;;;0.90;0.90;;;19.20;99.90;;;;;;5052780;28;20036;-70
2023/09/26 10:57:30;;;;;;;1.20;1.13;;;19.20;99.90;;;;;;5051411;28;20040;-71
2023/09/26 10:59:56;;;;;;;0.20;0.20;;;19.30;99.90;;;;;;5052685;28;20438;-71
2023/09/26 11:02:22;;;;;;;0.60;0.60;;;19.30;99.90;;;;;;5035397;28;20044;-70
2023/09/26 11:04:48;;;;;;;3.83;1.52;;;19.30;99.90;;;;;;5049554;28;20541;-71
2023/09/26 11:07:15;;;;;;;2.15;1.25;;;19.40;99.90;;;;;;5053398;28;20044;-71
2023/09/26 11:09:42;;;;;;;0.43;0.25;;;19.40;99.90;;;;;;5052785;28;20059;-71
2023/09/26 11:12:08;;;;;;;0.75;0.50;;;19.40;99.90;;;;;;5052607;28;20040;-71
2023/09/26 11:14:34;;;;;;;0.70;0.70;;;19.40;99.90;;;;;;5068084;28;20055;-71
2023/09/26 11:17:00;;;;;;;0.60;0.60;;;19.40;99.90;;;;;;5038052;28;20036;-71
2023/09/26 11:19:29;;;;;;;1.60;0.95;;;19.40;99.90;;;;;;5039777;28;20094;-71
2023/09/26 11:21:55;;;;;;;3.03;0.70;;;19.40;99.90;;;;;;5066975;28;20087;-71
2023/09/26 11:24:22;;;;;;;1.17;0.95;;;19.40;99.90;;;;;;5070319;28;20053;-71
2023/09/26 11:26:50;;;;;;;1.83;0.65;;;19.40;99.90;;;;;;5043948;28;20055;-71
2023/09/26 11:29:20;;;;;;;0.80;0.80;;;19.40;99.90;;;;;;5042844;28;20048;-71
2023/09/26 11:31:47;;;;;;;0.98;0.50;;;19.50;99.90;;;;;;5068756;28;20056;-71
2023/09/26 11:34:16;;;;;;;0.85;0.77;;;19.50;99.90;;;;;;5045928;28;20044;-72
2023/09/26 11:36:42;;;;;;;0.85;0.85;;;19.50;99.90;;;;;;5050046;28;20048;-71
2023/09/26 11:39:12;;;;;;;0.65;0.65;;;19.50;99.90;;;;;;5039536;28;20033;-71
2023/09/26 11:41:37;;;;;;;0.95;0.95;;;19.60;99.90;;;;;;5052116;28;20040;-71
2023/09/26 11:44:08;;;;;;;0.57;0.57;;;19.60;99.90;;;;;;5049853;28;20043;-71
2023/09/26 11:46:47;;;;;;;0.47;0.47;;;19.60;99.90;;;;;;5050468;28;20040;-71
2023/09/26 11:49:15;;;;;;;0.73;0.55;;;19.70;99.90;;;;;;5045280;28;20040;-71
2023/09/26 11:51:41;;;;;;;0.68;0.68;;;19.80;99.90;;;;;;5049957;28;20043;-71
2023/09/26 11:54:07;;;;;;;1.17;0.47;;;19.90;99.90;;;;;;5044094;28;20032;-71
2023/09/26 11:56:33;;;;;;;1.20;0.77;;;19.90;99.90;;;;;;5051159;28;20037;-71
2023/09/26 11:59:00;;;;;;;1.48;1.38;;;20.00;99.90;;;;;;5046346;28;20051;-72
2023/09/26 12:01:26;;;;;;;2.53;0.77;;;20.10;99.90;;;;;;5043689;28;20060;-71
2023/09/26 12:03:51;;;;;;;0.30;0.30;;;20.10;99.90;;;;;;5046855;28;20518;-71
2023/09/26 12:06:18;;;;;;;2.45;1.15;;;20.10;99.90;;;;;;5048491;28;20036;-71
2023/09/26 12:08:44;;;;;;;1.33;0.60;;;20.00;99.90;;;;;;5047301;28;20044;-71
2023/09/26 12:11:11;;;;;;;1.42;0.52;;;20.00;99.90;;;;;;5044308;28;20040;-71
2023/09/26 12:13:37;;;;;;;2.35;0.55;;;20.00;99.90;;;;;;5043276;28;20105;-72
2023/09/26 12:16:02;;;;;;;0.32;0.32;;;20.00;99.90;;;;;;5044068;28;20040;-71
2023/09/26 12:18:28;;;;;;;0.60;0.60;;;20.10;99.90;;;;;;5042221;28;20040;-71
2023/09/26 12:20:55;;;;;;;0.43;0.43;;;20.10;99.90;;;;;;5043654;28;20075;-71
2023/09/26 12:23:22;;;;;;;0.63;0.63;;;20.20;99.90;;;;;;5045305;28;20111;-73
2023/09/26 12:25:49;;;;;;;1.35;0.57;;;20.30;99.90;;;;;;5039709;28;20480;-72
2023/09/26 12:28:16;;;;;;;0.45;0.45;;;20.30;99.90;;;;;;5042061;28;20037;-72
2023/09/26 12:30:41;;;;;;;1.20;0.95;;;20.40;99.90;;;;;;5046836;28;20646;-71
2023/09/26 12:33:07;;;;;;;0.95;0.55;;;20.40;99.90;;;;;;5049044;28;20068;-72
2023/09/26 12:35:33;;;;;;;0.82;0.82;;;20.50;99.90;;;;;;5048268;28;20032;-71
2023/09/26 12:37:59;;;;;;;1.05;0.55;;;20.50;99.90;;;;;;5040542;28;20072;-71
2023/09/26 12:40:25;;;;;;;1.02;0.70;;;20.60;99.90;;;;;;5050948;28;20111;-71
2023/09/26 12:42:51;;;;;;;0.90;0.60;;;20.60;99.90;;;;;;5034059;28;20131;-71
2023/09/26 12:45:17;;;;;;;0.40;0.40;;;20.60;99.90;;;;;;5022958;28;20037;-72